sensor_id;sensor_type;location;lat;lon;timestamp;P1;durP1;ratioP1;P2;durP2;ratioP2
48897;SDS011;34713;50.038;20.000;2023-07-31T00:03:36;6.10;;;2.20;;
48897;SDS011;34713;50.038;20.000;2023-07-31T00:06:03;4.40;;;2.20;;
48897;SDS011;34713;50.038;20.000;2023-07-31T00:08:37;4.50;;;2.00;;
48897;SDS011;34713;50.038;20.000;2023-07-31T00:11:04;2.50;;;2.00;;
48897;SDS011;34713;50.038;20.000;2023-07-31T00:13:50;3.20;;;2.20;;
48897;SDS011;34713;50.038;20.000;2023-07-31T00:16:17;3.00;;;2.20;;
48897;SDS011;34713;50.038;20.000;2023-07-31T00:18:44;3.70;;;2.00;;
48897;SDS011;34713;50.038;20.000;2023-07-31T00:21:11;3.50;;;2.10;;
48897;SDS011;34713;50.038;20.000;2023-07-31T00:23:37;3.90;;;2.10;;
48897;SDS011;34713;50.038;20.000;2023-07-31T00:26:04;7.20;;;1.90;;
48897;SDS011;34713;50.038;20.000;2023-07-31T00:28:31;5.80;;;2.30;;
48897;SDS011;34713;50.038;20.000;2023-07-31T00:30:58;2.90;;;1.80;;
48897;SDS011;34713;50.038;20.000;2023-07-31T00:33:24;4.20;;;1.80;;
48897;SDS011;34713;50.038;20.000;2023-07-31T00:35:51;7.70;;;2.30;;
48897;SDS011;34713;50.038;20.000;2023-07-31T00:38:18;4.50;;;2.30;;
48897;SDS011;34713;50.038;20.000;2023-07-31T00:40:45;2.60;;;2.00;;
48897;SDS011;34713;50.038;20.000;2023-07-31T00:43:11;3.70;;;1.90;;
48897;SDS011;34713;50.038;20.000;2023-07-31T00:46:02;2.80;;;1.80;;
48897;SDS011;34713;50.038;20.000;2023-07-31T00:48:34;4.60;;;1.80;;
48897;SDS011;34713;50.038;20.000;2023-07-31T00:51:03;4.10;;;2.00;;
48897;SDS011;34713;50.038;20.000;2023-07-31T00:53:30;3.20;;;1.80;;
48897;SDS011;34713;50.038;20.000;2023-07-31T00:56:00;2.90;;;1.70;;
48897;SDS011;34713;50.038;20.000;2023-07-31T00:58:29;3.00;;;1.50;;
48897;SDS011;34713;50.038;20.000;2023-07-31T01:01:20;2.90;;;1.50;;
48897;SDS011;34713;50.038;20.000;2023-07-31T01:03:48;2.70;;;1.70;;
48897;SDS011;34713;50.038;20.000;2023-07-31T01:06:27;3.90;;;1.90;;
48897;SDS011;34713;50.038;20.000;2023-07-31T01:09:13;3.80;;;1.80;;
48897;SDS011;34713;50.038;20.000;2023-07-31T01:12:05;3.10;;;1.90;;
48897;SDS011;34713;50.038;20.000;2023-07-31T01:14:36;3.40;;;2.20;;
48897;SDS011;34713;50.038;20.000;2023-07-31T01:17:06;2.80;;;1.70;;
48897;SDS011;34713;50.038;20.000;2023-07-31T01:19:42;2.80;;;1.50;;
48897;SDS011;34713;50.038;20.000;2023-07-31T01:28:33;2.70;;;1.60;;
48897;SDS011;34713;50.038;20.000;2023-07-31T01:31:02;4.30;;;1.70;;
48897;SDS011;34713;50.038;20.000;2023-07-31T01:33:41;3.30;;;1.80;;
48897;SDS011;34713;50.038;20.000;2023-07-31T01:36:20;2.30;;;1.50;;
48897;SDS011;34713;50.038;20.000;2023-07-31T01:38:47;3.10;;;1.90;;
48897;SDS011;34713;50.038;20.000;2023-07-31T01:41:16;4.30;;;1.90;;
48897;SDS011;34713;50.038;20.000;2023-07-31T01:43:52;3.00;;;2.10;;
48897;SDS011;34713;50.038;20.000;2023-07-31T01:46:19;2.70;;;1.90;;
48897;SDS011;34713;50.038;20.000;2023-07-31T01:48:45;3.80;;;2.10;;
48897;SDS011;34713;50.038;20.000;2023-07-31T01:51:15;4.30;;;2.10;;
48897;SDS011;34713;50.038;20.000;2023-07-31T01:53:42;2.90;;;1.50;;
48897;SDS011;34713;50.038;20.000;2023-07-31T01:56:09;5.60;;;2.00;;
48897;SDS011;34713;50.038;20.000;2023-07-31T01:58:36;4.20;;;2.10;;
48897;SDS011;34713;50.038;20.000;2023-07-31T02:01:05;3.90;;;1.90;;
48897;SDS011;34713;50.038;20.000;2023-07-31T02:03:32;2.80;;;1.60;;
48897;SDS011;34713;50.038;20.000;2023-07-31T02:06:01;3.90;;;2.20;;
48897;SDS011;34713;50.038;20.000;2023-07-31T02:08:28;4.60;;;2.10;;
48897;SDS011;34713;50.038;20.000;2023-07-31T02:10:55;4.80;;;2.30;;
48897;SDS011;34713;50.038;20.000;2023-07-31T02:13:25;4.20;;;2.00;;
48897;SDS011;34713;50.038;20.000;2023-07-31T02:15:52;3.50;;;2.00;;
48897;SDS011;34713;50.038;20.000;2023-07-31T02:18:19;3.30;;;2.00;;
48897;SDS011;34713;50.038;20.000;2023-07-31T02:20:52;5.80;;;2.50;;
48897;SDS011;34713;50.038;20.000;2023-07-31T02:23:21;4.20;;;2.30;;
48897;SDS011;34713;50.038;20.000;2023-07-31T02:25:48;4.00;;;2.90;;
48897;SDS011;34713;50.038;20.000;2023-07-31T02:28:15;2.90;;;2.00;;
48897;SDS011;34713;50.038;20.000;2023-07-31T02:30:45;4.00;;;2.50;;
48897;SDS011;34713;50.038;20.000;2023-07-31T02:33:14;4.60;;;2.70;;
48897;SDS011;34713;50.038;20.000;2023-07-31T02:35:49;3.60;;;2.20;;
48897;SDS011;34713;50.038;20.000;2023-07-31T02:38:19;4.50;;;2.00;;
48897;SDS011;34713;50.038;20.000;2023-07-31T02:41:09;4.50;;;2.80;;
48897;SDS011;34713;50.038;20.000;2023-07-31T02:43:36;7.40;;;2.60;;
48897;SDS011;34713;50.038;20.000;2023-07-31T02:46:02;3.50;;;2.10;;
48897;SDS011;34713;50.038;20.000;2023-07-31T02:48:32;4.90;;;2.60;;
48897;SDS011;34713;50.038;20.000;2023-07-31T02:51:02;6.00;;;2.70;;
48897;SDS011;34713;50.038;20.000;2023-07-31T02:56:28;5.00;;;2.40;;
48897;SDS011;34713;50.038;20.000;2023-07-31T02:58:55;6.10;;;2.70;;
48897;SDS011;34713;50.038;20.000;2023-07-31T03:01:55;3.80;;;2.30;;
48897;SDS011;34713;50.038;20.000;2023-07-31T03:05:06;5.10;;;2.20;;
48897;SDS011;34713;50.038;20.000;2023-07-31T03:07:34;6.70;;;2.30;;
48897;SDS011;34713;50.038;20.000;2023-07-31T03:10:10;3.20;;;2.40;;
48897;SDS011;34713;50.038;20.000;2023-07-31T03:12:40;5.00;;;2.20;;
48897;SDS011;34713;50.038;20.000;2023-07-31T03:17:46;4.30;;;2.40;;
48897;SDS011;34713;50.038;20.000;2023-07-31T03:20:13;5.40;;;2.30;;
48897;SDS011;34713;50.038;20.000;2023-07-31T03:22:40;3.60;;;2.20;;
48897;SDS011;34713;50.038;20.000;2023-07-31T03:25:07;4.40;;;3.00;;
48897;SDS011;34713;50.038;20.000;2023-07-31T03:27:35;3.60;;;2.40;;
48897;SDS011;34713;50.038;20.000;2023-07-31T03:30:02;3.50;;;2.40;;
48897;SDS011;34713;50.038;20.000;2023-07-31T03:32:32;3.90;;;2.40;;
48897;SDS011;34713;50.038;20.000;2023-07-31T03:35:04;5.70;;;2.40;;
48897;SDS011;34713;50.038;20.000;2023-07-31T03:37:31;6.00;;;2.60;;
48897;SDS011;34713;50.038;20.000;2023-07-31T03:40:01;6.00;;;3.20;;
48897;SDS011;34713;50.038;20.000;2023-07-31T03:42:28;3.70;;;2.30;;
48897;SDS011;34713;50.038;20.000;2023-07-31T03:44:55;4.50;;;1.90;;
48897;SDS011;34713;50.038;20.000;2023-07-31T03:47:22;4.60;;;2.40;;
48897;SDS011;34713;50.038;20.000;2023-07-31T03:49:49;3.40;;;2.20;;
48897;SDS011;34713;50.038;20.000;2023-07-31T03:52:16;4.70;;;2.50;;
48897;SDS011;34713;50.038;20.000;2023-07-31T03:54:42;6.30;;;2.70;;
48897;SDS011;34713;50.038;20.000;2023-07-31T03:57:10;4.50;;;2.30;;
48897;SDS011;34713;50.038;20.000;2023-07-31T03:59:37;3.50;;;2.00;;
48897;SDS011;34713;50.038;20.000;2023-07-31T04:02:13;3.20;;;2.00;;
48897;SDS011;34713;50.038;20.000;2023-07-31T04:04:44;3.30;;;2.20;;
48897;SDS011;34713;50.038;20.000;2023-07-31T04:07:11;6.10;;;2.30;;
48897;SDS011;34713;50.038;20.000;2023-07-31T04:09:38;3.40;;;2.20;;
48897;SDS011;34713;50.038;20.000;2023-07-31T04:12:30;3.50;;;2.20;;
48897;SDS011;34713;50.038;20.000;2023-07-31T04:15:17;5.00;;;2.00;;
48897;SDS011;34713;50.038;20.000;2023-07-31T04:24:59;3.30;;;1.80;;
48897;SDS011;34713;50.038;20.000;2023-07-31T04:27:28;4.20;;;2.00;;
48897;SDS011;34713;50.038;20.000;2023-07-31T04:30:04;2.70;;;2.00;;
48897;SDS011;34713;50.038;20.000;2023-07-31T04:33:06;5.60;;;2.00;;
48897;SDS011;34713;50.038;20.000;2023-07-31T04:35:52;3.60;;;1.90;;
48897;SDS011;34713;50.038;20.000;2023-07-31T04:45:27;3.40;;;2.00;;
48897;SDS011;34713;50.038;20.000;2023-07-31T04:48:31;3.30;;;1.90;;
48897;SDS011;34713;50.038;20.000;2023-07-31T04:51:22;5.00;;;2.50;;
48897;SDS011;34713;50.038;20.000;2023-07-31T04:57:10;3.80;;;1.80;;
48897;SDS011;34713;50.038;20.000;2023-07-31T05:00:29;3.70;;;2.10;;
48897;SDS011;34713;50.038;20.000;2023-07-31T05:03:37;3.40;;;2.10;;
48897;SDS011;34713;50.038;20.000;2023-07-31T05:06:30;5.50;;;2.20;;
48897;SDS011;34713;50.038;20.000;2023-07-31T05:12:44;3.90;;;2.30;;
48897;SDS011;34713;50.038;20.000;2023-07-31T05:15:10;3.40;;;1.90;;
48897;SDS011;34713;50.038;20.000;2023-07-31T05:17:37;3.80;;;2.20;;
48897;SDS011;34713;50.038;20.000;2023-07-31T05:20:12;5.20;;;2.30;;
48897;SDS011;34713;50.038;20.000;2023-07-31T05:22:59;3.60;;;2.30;;
48897;SDS011;34713;50.038;20.000;2023-07-31T05:25:25;5.30;;;2.60;;
48897;SDS011;34713;50.038;20.000;2023-07-31T05:27:52;6.00;;;2.50;;
48897;SDS011;34713;50.038;20.000;2023-07-31T05:30:21;5.70;;;2.80;;
48897;SDS011;34713;50.038;20.000;2023-07-31T05:43:19;7.10;;;3.40;;
48897;SDS011;34713;50.038;20.000;2023-07-31T06:05:00;5.90;;;4.00;;
48897;SDS011;34713;50.038;20.000;2023-07-31T06:32:02;8.30;;;4.80;;
48897;SDS011;34713;50.038;20.000;2023-07-31T06:34:34;12.80;;;6.50;;
48897;SDS011;34713;50.038;20.000;2023-07-31T06:37:21;6.20;;;4.70;;
48897;SDS011;34713;50.038;20.000;2023-07-31T06:40:31;6.10;;;3.80;;
48897;SDS011;34713;50.038;20.000;2023-07-31T06:42:57;7.70;;;4.20;;
48897;SDS011;34713;50.038;20.000;2023-07-31T06:45:45;6.20;;;3.90;;
48897;SDS011;34713;50.038;20.000;2023-07-31T06:48:19;7.80;;;4.20;;
48897;SDS011;34713;50.038;20.000;2023-07-31T06:51:06;5.40;;;3.90;;
48897;SDS011;34713;50.038;20.000;2023-07-31T06:53:36;6.10;;;3.90;;
48897;SDS011;34713;50.038;20.000;2023-07-31T06:56:03;6.00;;;3.70;;
48897;SDS011;34713;50.038;20.000;2023-07-31T06:58:35;5.40;;;4.20;;
48897;SDS011;34713;50.038;20.000;2023-07-31T07:01:02;6.90;;;3.80;;
48897;SDS011;34713;50.038;20.000;2023-07-31T07:03:29;6.50;;;3.40;;
48897;SDS011;34713;50.038;20.000;2023-07-31T07:05:55;5.50;;;3.30;;
48897;SDS011;34713;50.038;20.000;2023-07-31T07:08:22;4.50;;;3.20;;
48897;SDS011;34713;50.038;20.000;2023-07-31T07:10:50;5.10;;;3.70;;
48897;SDS011;34713;50.038;20.000;2023-07-31T07:13:16;6.90;;;3.10;;
48897;SDS011;34713;50.038;20.000;2023-07-31T07:15:47;4.30;;;2.90;;
48897;SDS011;34713;50.038;20.000;2023-07-31T07:18:15;6.70;;;3.30;;
48897;SDS011;34713;50.038;20.000;2023-07-31T07:20:53;4.70;;;3.10;;
48897;SDS011;34713;50.038;20.000;2023-07-31T07:23:24;4.20;;;2.90;;
48897;SDS011;34713;50.038;20.000;2023-07-31T07:25:54;8.60;;;2.60;;
48897;SDS011;34713;50.038;20.000;2023-07-31T07:28:21;4.50;;;2.70;;
48897;SDS011;34713;50.038;20.000;2023-07-31T07:34:07;5.10;;;2.40;;
48897;SDS011;34713;50.038;20.000;2023-07-31T07:37:05;4.50;;;2.30;;
48897;SDS011;34713;50.038;20.000;2023-07-31T07:39:35;3.80;;;2.30;;
48897;SDS011;34713;50.038;20.000;2023-07-31T07:44:52;3.70;;;2.10;;
48897;SDS011;34713;50.038;20.000;2023-07-31T07:53:36;2.70;;;1.40;;
48897;SDS011;34713;50.038;20.000;2023-07-31T07:56:45;4.50;;;1.80;;
48897;SDS011;34713;50.038;20.000;2023-07-31T07:59:16;5.70;;;1.90;;
48897;SDS011;34713;50.038;20.000;2023-07-31T08:02:07;4.50;;;1.80;;
48897;SDS011;34713;50.038;20.000;2023-07-31T08:04:37;3.70;;;2.00;;
48897;SDS011;34713;50.038;20.000;2023-07-31T08:07:04;2.50;;;1.60;;
48897;SDS011;34713;50.038;20.000;2023-07-31T08:09:37;4.60;;;1.90;;
48897;SDS011;34713;50.038;20.000;2023-07-31T08:12:25;5.70;;;1.80;;
48897;SDS011;34713;50.038;20.000;2023-07-31T08:15:03;4.40;;;1.80;;
48897;SDS011;34713;50.038;20.000;2023-07-31T08:20:51;3.90;;;1.90;;
48897;SDS011;34713;50.038;20.000;2023-07-31T08:23:58;5.90;;;2.00;;
48897;SDS011;34713;50.038;20.000;2023-07-31T08:27:02;4.10;;;2.10;;
48897;SDS011;34713;50.038;20.000;2023-07-31T08:29:28;3.20;;;1.80;;
48897;SDS011;34713;50.038;20.000;2023-07-31T08:31:55;3.40;;;1.70;;
48897;SDS011;34713;50.038;20.000;2023-07-31T08:34:27;7.60;;;2.40;;
48897;SDS011;34713;50.038;20.000;2023-07-31T08:36:54;5.70;;;2.10;;
48897;SDS011;34713;50.038;20.000;2023-07-31T08:39:28;3.40;;;1.70;;
48897;SDS011;34713;50.038;20.000;2023-07-31T08:44:29;6.00;;;1.80;;
48897;SDS011;34713;50.038;20.000;2023-07-31T08:47:02;6.10;;;2.00;;
48897;SDS011;34713;50.038;20.000;2023-07-31T08:49:32;5.10;;;1.70;;
48897;SDS011;34713;50.038;20.000;2023-07-31T08:52:06;3.80;;;2.50;;
48897;SDS011;34713;50.038;20.000;2023-07-31T08:54:52;3.60;;;1.70;;
48897;SDS011;34713;50.038;20.000;2023-07-31T08:57:30;6.20;;;1.70;;
48897;SDS011;34713;50.038;20.000;2023-07-31T09:00:21;3.70;;;1.80;;
48897;SDS011;34713;50.038;20.000;2023-07-31T09:02:57;5.00;;;2.00;;
48897;SDS011;34713;50.038;20.000;2023-07-31T09:05:55;3.90;;;1.70;;
48897;SDS011;34713;50.038;20.000;2023-07-31T09:11:49;5.40;;;2.10;;
48897;SDS011;34713;50.038;20.000;2023-07-31T09:14:18;5.20;;;1.50;;
48897;SDS011;34713;50.038;20.000;2023-07-31T09:16:58;4.00;;;1.60;;
48897;SDS011;34713;50.038;20.000;2023-07-31T09:25:50;4.20;;;1.70;;
48897;SDS011;34713;50.038;20.000;2023-07-31T09:28:17;3.50;;;1.80;;
48897;SDS011;34713;50.038;20.000;2023-07-31T09:31:04;4.00;;;1.50;;
48897;SDS011;34713;50.038;20.000;2023-07-31T09:33:31;4.60;;;2.00;;
48897;SDS011;34713;50.038;20.000;2023-07-31T09:36:01;6.30;;;1.90;;
48897;SDS011;34713;50.038;20.000;2023-07-31T09:38:43;6.40;;;1.70;;
48897;SDS011;34713;50.038;20.000;2023-07-31T09:41:36;5.80;;;1.60;;
48897;SDS011;34713;50.038;20.000;2023-07-31T09:44:13;5.00;;;1.70;;
48897;SDS011;34713;50.038;20.000;2023-07-31T09:46:47;4.80;;;1.50;;
48897;SDS011;34713;50.038;20.000;2023-07-31T09:49:37;4.20;;;1.50;;
48897;SDS011;34713;50.038;20.000;2023-07-31T09:55:26;4.80;;;1.80;;
48897;SDS011;34713;50.038;20.000;2023-07-31T09:57:56;5.70;;;1.50;;
48897;SDS011;34713;50.038;20.000;2023-07-31T10:00:25;2.80;;;1.10;;
48897;SDS011;34713;50.038;20.000;2023-07-31T10:02:58;2.90;;;1.30;;
48897;SDS011;34713;50.038;20.000;2023-07-31T10:06:08;4.20;;;1.60;;
48897;SDS011;34713;50.038;20.000;2023-07-31T10:08:38;3.50;;;1.50;;
48897;SDS011;34713;50.038;20.000;2023-07-31T10:11:08;4.70;;;1.30;;
48897;SDS011;34713;50.038;20.000;2023-07-31T10:13:36;4.50;;;2.00;;
48897;SDS011;34713;50.038;20.000;2023-07-31T10:16:03;3.10;;;1.30;;
48897;SDS011;34713;50.038;20.000;2023-07-31T10:18:39;4.10;;;1.60;;
48897;SDS011;34713;50.038;20.000;2023-07-31T10:21:47;2.90;;;1.80;;
48897;SDS011;34713;50.038;20.000;2023-07-31T10:27:45;3.10;;;1.60;;
48897;SDS011;34713;50.038;20.000;2023-07-31T10:30:19;6.20;;;1.80;;
48897;SDS011;34713;50.038;20.000;2023-07-31T10:33:29;2.20;;;1.40;;
48897;SDS011;34713;50.038;20.000;2023-07-31T10:36:20;3.60;;;1.00;;
48897;SDS011;34713;50.038;20.000;2023-07-31T10:39:36;4.40;;;1.40;;
48897;SDS011;34713;50.038;20.000;2023-07-31T10:45:30;6.20;;;1.50;;
48897;SDS011;34713;50.038;20.000;2023-07-31T10:48:04;5.60;;;1.80;;
48897;SDS011;34713;50.038;20.000;2023-07-31T10:50:40;4.10;;;1.60;;
48897;SDS011;34713;50.038;20.000;2023-07-31T10:53:34;7.60;;;1.50;;
48897;SDS011;34713;50.038;20.000;2023-07-31T10:56:02;3.50;;;1.10;;
48897;SDS011;34713;50.038;20.000;2023-07-31T10:58:38;3.30;;;1.50;;
48897;SDS011;34713;50.038;20.000;2023-07-31T11:01:06;6.60;;;1.30;;
48897;SDS011;34713;50.038;20.000;2023-07-31T11:03:42;3.20;;;1.20;;
48897;SDS011;34713;50.038;20.000;2023-07-31T11:06:12;3.40;;;1.50;;
48897;SDS011;34713;50.038;20.000;2023-07-31T11:08:43;2.50;;;1.20;;
48897;SDS011;34713;50.038;20.000;2023-07-31T11:11:14;2.70;;;1.20;;
48897;SDS011;34713;50.038;20.000;2023-07-31T11:16:16;2.90;;;1.40;;
48897;SDS011;34713;50.038;20.000;2023-07-31T11:18:47;3.60;;;1.10;;
48897;SDS011;34713;50.038;20.000;2023-07-31T11:21:32;2.80;;;1.30;;
48897;SDS011;34713;50.038;20.000;2023-07-31T11:23:59;3.30;;;1.10;;
48897;SDS011;34713;50.038;20.000;2023-07-31T11:26:26;4.80;;;1.70;;
48897;SDS011;34713;50.038;20.000;2023-07-31T11:28:53;2.00;;;1.10;;
48897;SDS011;34713;50.038;20.000;2023-07-31T11:31:20;2.50;;;1.20;;
48897;SDS011;34713;50.038;20.000;2023-07-31T11:33:47;4.80;;;1.50;;
48897;SDS011;34713;50.038;20.000;2023-07-31T11:36:14;6.60;;;1.50;;
48897;SDS011;34713;50.038;20.000;2023-07-31T11:38:45;3.50;;;1.80;;
48897;SDS011;34713;50.038;20.000;2023-07-31T11:41:13;5.40;;;1.60;;
48897;SDS011;34713;50.038;20.000;2023-07-31T11:43:41;3.30;;;1.20;;
48897;SDS011;34713;50.038;20.000;2023-07-31T11:46:19;8.20;;;1.20;;
48897;SDS011;34713;50.038;20.000;2023-07-31T11:52:17;2.00;;;0.90;;
48897;SDS011;34713;50.038;20.000;2023-07-31T11:54:49;2.00;;;1.10;;
48897;SDS011;34713;50.038;20.000;2023-07-31T11:57:25;3.30;;;1.20;;
48897;SDS011;34713;50.038;20.000;2023-07-31T12:06:53;4.10;;;1.20;;
48897;SDS011;34713;50.038;20.000;2023-07-31T12:12:54;2.50;;;1.30;;
48897;SDS011;34713;50.038;20.000;2023-07-31T12:15:41;2.80;;;1.20;;
48897;SDS011;34713;50.038;20.000;2023-07-31T12:18:24;2.00;;;1.20;;
48897;SDS011;34713;50.038;20.000;2023-07-31T12:28:04;3.10;;;1.40;;
48897;SDS011;34713;50.038;20.000;2023-07-31T12:30:47;4.30;;;1.70;;
48897;SDS011;34713;50.038;20.000;2023-07-31T12:33:14;4.80;;;1.30;;
48897;SDS011;34713;50.038;20.000;2023-07-31T12:44:36;3.60;;;1.20;;
48897;SDS011;34713;50.038;20.000;2023-07-31T12:51:04;2.20;;;1.10;;
48897;SDS011;34713;50.038;20.000;2023-07-31T12:53:52;6.50;;;1.20;;
48897;SDS011;34713;50.038;20.000;2023-07-31T12:56:26;3.10;;;1.60;;
48897;SDS011;34713;50.038;20.000;2023-07-31T12:58:53;2.50;;;0.90;;
48897;SDS011;34713;50.038;20.000;2023-07-31T13:04:46;2.60;;;1.10;;
48897;SDS011;34713;50.038;20.000;2023-07-31T13:10:43;4.50;;;1.30;;
48897;SDS011;34713;50.038;20.000;2023-07-31T13:16:24;2.60;;;1.30;;
48897;SDS011;34713;50.038;20.000;2023-07-31T13:25:49;3.40;;;1.70;;
48897;SDS011;34713;50.038;20.000;2023-07-31T13:34:54;2.70;;;1.10;;
48897;SDS011;34713;50.038;20.000;2023-07-31T13:37:23;6.90;;;1.20;;
48897;SDS011;34713;50.038;20.000;2023-07-31T13:43:37;3.10;;;1.20;;
48897;SDS011;34713;50.038;20.000;2023-07-31T13:46:15;3.60;;;1.70;;
48897;SDS011;34713;50.038;20.000;2023-07-31T13:58:43;1.90;;;1.20;;
48897;SDS011;34713;50.038;20.000;2023-07-31T14:01:30;2.60;;;1.30;;
48897;SDS011;34713;50.038;20.000;2023-07-31T14:03:57;3.20;;;1.40;;
48897;SDS011;34713;50.038;20.000;2023-07-31T14:06:23;3.70;;;1.20;;
48897;SDS011;34713;50.038;20.000;2023-07-31T14:08:50;2.10;;;1.00;;
48897;SDS011;34713;50.038;20.000;2023-07-31T14:11:17;2.70;;;1.20;;
48897;SDS011;34713;50.038;20.000;2023-07-31T14:13:43;7.10;;;1.40;;
48897;SDS011;34713;50.038;20.000;2023-07-31T14:16:13;4.80;;;1.40;;
48897;SDS011;34713;50.038;20.000;2023-07-31T14:18:49;4.00;;;1.20;;
48897;SDS011;34713;50.038;20.000;2023-07-31T14:21:19;3.20;;;1.20;;
48897;SDS011;34713;50.038;20.000;2023-07-31T14:23:55;2.50;;;1.00;;
48897;SDS011;34713;50.038;20.000;2023-07-31T14:26:24;7.20;;;1.20;;
48897;SDS011;34713;50.038;20.000;2023-07-31T14:28:54;2.00;;;1.20;;
48897;SDS011;34713;50.038;20.000;2023-07-31T14:31:26;3.10;;;1.20;;
48897;SDS011;34713;50.038;20.000;2023-07-31T14:34:10;2.80;;;1.20;;
48897;SDS011;34713;50.038;20.000;2023-07-31T14:37:08;1.90;;;1.20;;
48897;SDS011;34713;50.038;20.000;2023-07-31T14:39:35;2.70;;;1.00;;
48897;SDS011;34713;50.038;20.000;2023-07-31T14:42:14;3.40;;;1.20;;
48897;SDS011;34713;50.038;20.000;2023-07-31T14:44:44;2.90;;;1.10;;
48897;SDS011;34713;50.038;20.000;2023-07-31T14:47:13;1.30;;;0.90;;
48897;SDS011;34713;50.038;20.000;2023-07-31T14:49:52;2.90;;;1.50;;
48897;SDS011;34713;50.038;20.000;2023-07-31T14:52:22;3.30;;;1.20;;
48897;SDS011;34713;50.038;20.000;2023-07-31T14:54:51;3.30;;;1.20;;
48897;SDS011;34713;50.038;20.000;2023-07-31T14:57:38;4.00;;;1.60;;
48897;SDS011;34713;50.038;20.000;2023-07-31T15:00:05;2.50;;;0.90;;
48897;SDS011;34713;50.038;20.000;2023-07-31T15:02:39;3.20;;;1.20;;
48897;SDS011;34713;50.038;20.000;2023-07-31T15:08:05;3.80;;;1.10;;
48897;SDS011;34713;50.038;20.000;2023-07-31T15:10:43;2.50;;;1.00;;
48897;SDS011;34713;50.038;20.000;2023-07-31T15:17:04;2.50;;;1.10;;
48897;SDS011;34713;50.038;20.000;2023-07-31T15:19:31;5.90;;;1.10;;
48897;SDS011;34713;50.038;20.000;2023-07-31T15:22:01;3.00;;;1.30;;
48897;SDS011;34713;50.038;20.000;2023-07-31T15:24:35;3.70;;;0.90;;
48897;SDS011;34713;50.038;20.000;2023-07-31T15:33:06;2.60;;;1.30;;
48897;SDS011;34713;50.038;20.000;2023-07-31T15:36:13;3.80;;;1.30;;
48897;SDS011;34713;50.038;20.000;2023-07-31T15:39:00;5.90;;;1.60;;
48897;SDS011;34713;50.038;20.000;2023-07-31T15:41:45;2.40;;;1.10;;
48897;SDS011;34713;50.038;20.000;2023-07-31T15:44:21;1.90;;;1.30;;
48897;SDS011;34713;50.038;20.000;2023-07-31T15:47:49;5.30;;;1.30;;
48897;SDS011;34713;50.038;20.000;2023-07-31T15:50:15;5.20;;;1.20;;
48897;SDS011;34713;50.038;20.000;2023-07-31T15:52:45;2.70;;;1.00;;
48897;SDS011;34713;50.038;20.000;2023-07-31T15:55:19;2.90;;;1.00;;
48897;SDS011;34713;50.038;20.000;2023-07-31T15:58:16;3.80;;;1.40;;
48897;SDS011;34713;50.038;20.000;2023-07-31T16:03:46;3.10;;;0.90;;
48897;SDS011;34713;50.038;20.000;2023-07-31T16:06:18;3.60;;;1.20;;
48897;SDS011;34713;50.038;20.000;2023-07-31T16:08:48;2.90;;;1.10;;
48897;SDS011;34713;50.038;20.000;2023-07-31T16:11:17;3.50;;;1.20;;
48897;SDS011;34713;50.038;20.000;2023-07-31T16:13:51;3.40;;;1.30;;
48897;SDS011;34713;50.038;20.000;2023-07-31T16:18:46;4.20;;;1.10;;
48897;SDS011;34713;50.038;20.000;2023-07-31T16:30:29;2.20;;;1.10;;
48897;SDS011;34713;50.038;20.000;2023-07-31T16:33:36;1.80;;;0.90;;
48897;SDS011;34713;50.038;20.000;2023-07-31T16:36:08;4.40;;;1.20;;
48897;SDS011;34713;50.038;20.000;2023-07-31T16:38:48;6.10;;;1.40;;
48897;SDS011;34713;50.038;20.000;2023-07-31T16:41:15;2.40;;;1.30;;
48897;SDS011;34713;50.038;20.000;2023-07-31T16:43:50;4.10;;;1.30;;
48897;SDS011;34713;50.038;20.000;2023-07-31T16:46:40;6.20;;;1.10;;
48897;SDS011;34713;50.038;20.000;2023-07-31T16:49:19;4.80;;;1.20;;
48897;SDS011;34713;50.038;20.000;2023-07-31T16:51:53;3.00;;;1.40;;
48897;SDS011;34713;50.038;20.000;2023-07-31T17:00:35;3.10;;;1.40;;
48897;SDS011;34713;50.038;20.000;2023-07-31T17:06:45;3.60;;;1.00;;
48897;SDS011;34713;50.038;20.000;2023-07-31T17:09:12;4.80;;;1.50;;
48897;SDS011;34713;50.038;20.000;2023-07-31T17:11:49;4.40;;;1.40;;
48897;SDS011;34713;50.038;20.000;2023-07-31T17:14:16;5.60;;;2.20;;
48897;SDS011;34713;50.038;20.000;2023-07-31T17:16:43;6.90;;;1.90;;
48897;SDS011;34713;50.038;20.000;2023-07-31T17:19:24;5.00;;;1.80;;
48897;SDS011;34713;50.038;20.000;2023-07-31T17:24:50;3.80;;;1.70;;
48897;SDS011;34713;50.038;20.000;2023-07-31T17:27:28;4.50;;;1.50;;
48897;SDS011;34713;50.038;20.000;2023-07-31T17:30:04;3.70;;;1.20;;
48897;SDS011;34713;50.038;20.000;2023-07-31T17:33:00;3.00;;;1.10;;
48897;SDS011;34713;50.038;20.000;2023-07-31T17:35:39;2.40;;;1.10;;
48897;SDS011;34713;50.038;20.000;2023-07-31T17:38:06;6.40;;;1.30;;
48897;SDS011;34713;50.038;20.000;2023-07-31T17:40:36;2.60;;;1.10;;
48897;SDS011;34713;50.038;20.000;2023-07-31T17:43:06;2.70;;;1.00;;
48897;SDS011;34713;50.038;20.000;2023-07-31T17:49:06;3.10;;;1.20;;
48897;SDS011;34713;50.038;20.000;2023-07-31T17:51:58;2.10;;;0.80;;
48897;SDS011;34713;50.038;20.000;2023-07-31T17:54:48;5.90;;;1.30;;
48897;SDS011;34713;50.038;20.000;2023-07-31T17:57:55;5.30;;;1.40;;
48897;SDS011;34713;50.038;20.000;2023-07-31T18:00:31;3.40;;;1.20;;
48897;SDS011;34713;50.038;20.000;2023-07-31T18:02:58;3.10;;;1.40;;
48897;SDS011;34713;50.038;20.000;2023-07-31T18:13:11;3.50;;;1.70;;
48897;SDS011;34713;50.038;20.000;2023-07-31T18:22:07;4.70;;;1.20;;
48897;SDS011;34713;50.038;20.000;2023-07-31T18:24:59;3.90;;;1.30;;
48897;SDS011;34713;50.038;20.000;2023-07-31T18:31:19;4.00;;;1.40;;
48897;SDS011;34713;50.038;20.000;2023-07-31T18:34:22;3.70;;;1.10;;
48897;SDS011;34713;50.038;20.000;2023-07-31T18:40:56;6.30;;;1.60;;
48897;SDS011;34713;50.038;20.000;2023-07-31T18:43:22;4.70;;;1.40;;
48897;SDS011;34713;50.038;20.000;2023-07-31T18:46:10;6.60;;;1.40;;
48897;SDS011;34713;50.038;20.000;2023-07-31T18:55:49;3.30;;;1.20;;
48897;SDS011;34713;50.038;20.000;2023-07-31T19:05:40;5.30;;;1.90;;
48897;SDS011;34713;50.038;20.000;2023-07-31T19:08:41;5.80;;;1.60;;
48897;SDS011;34713;50.038;20.000;2023-07-31T19:11:55;3.50;;;1.90;;
48897;SDS011;34713;50.038;20.000;2023-07-31T19:17:54;5.80;;;1.80;;
48897;SDS011;34713;50.038;20.000;2023-07-31T19:20:50;6.80;;;2.60;;
48897;SDS011;34713;50.038;20.000;2023-07-31T19:26:24;7.10;;;2.30;;
48897;SDS011;34713;50.038;20.000;2023-07-31T19:29:02;7.80;;;2.70;;
48897;SDS011;34713;50.038;20.000;2023-07-31T19:31:32;7.10;;;2.20;;
48897;SDS011;34713;50.038;20.000;2023-07-31T19:36:57;6.80;;;3.10;;
48897;SDS011;34713;50.038;20.000;2023-07-31T19:39:24;7.00;;;2.50;;
48897;SDS011;34713;50.038;20.000;2023-07-31T19:44:37;5.40;;;2.20;;
48897;SDS011;34713;50.038;20.000;2023-07-31T19:47:04;4.30;;;2.20;;
48897;SDS011;34713;50.038;20.000;2023-07-31T19:49:31;4.90;;;1.60;;
48897;SDS011;34713;50.038;20.000;2023-07-31T19:51:57;3.40;;;1.80;;
48897;SDS011;34713;50.038;20.000;2023-07-31T19:54:27;5.20;;;1.70;;
48897;SDS011;34713;50.038;20.000;2023-07-31T19:59:41;5.60;;;2.10;;
48897;SDS011;34713;50.038;20.000;2023-07-31T20:02:08;4.30;;;2.10;;
48897;SDS011;34713;50.038;20.000;2023-07-31T20:04:35;7.10;;;2.50;;
48897;SDS011;34713;50.038;20.000;2023-07-31T20:07:07;5.30;;;2.10;;
48897;SDS011;34713;50.038;20.000;2023-07-31T20:09:37;4.40;;;2.10;;
48897;SDS011;34713;50.038;20.000;2023-07-31T20:12:04;4.20;;;1.90;;
48897;SDS011;34713;50.038;20.000;2023-07-31T20:14:42;6.70;;;2.10;;